ES-0164 weather

Camp de vol La Puieda
Gurb, Catalonia, Spain

Public forecast

Using degrees Celsius for public forecast. Weather courtesy of forecast.io.

METAR (pilot weather report)

Closest report is Girona Airport, 23.1 nm (42.8 km) ESE. Retrieved 2019/09/21 10:30 UTC (4 minutes ago):

LEGE 211030Z 32005KT 250V030 9999 SCT020 BKN045 19/18 Q1015

TAF (pilot weather forecast)

Closest forecast is Girona Airport, 23.1 nm (42.8 km) ESE. Retrieved 2019/09/21 06:27 UTC (4 hours ago):

TAF LEGE 210500Z 2106/2206 VRB05KT 9999 BKN025 TX23/2113Z TN16/2106Z TEMPO 2106/2118 3000 TSRA BKN010 SCT020CB PROB40 TEMPO 2108/2116 VRB10G25KT 2000 +TSRA BKN008 SCT020CB